sensor_id;sensor_type;location;lat;lon;timestamp;P1;durP1;ratioP1;P2;durP2;ratioP2
37791;SDS011;29527;55.766;37.570;2022-12-07T00:01:07;7.60;;;3.40;;
37791;SDS011;29527;55.766;37.570;2022-12-07T00:03:35;7.63;;;3.20;;
37791;SDS011;29527;55.766;37.570;2022-12-07T00:06:02;7.40;;;2.95;;
37791;SDS011;29527;55.766;37.570;2022-12-07T00:08:29;7.15;;;3.13;;
37791;SDS011;29527;55.766;37.570;2022-12-07T00:11:00;6.75;;;3.05;;
37791;SDS011;29527;55.766;37.570;2022-12-07T00:13:26;7.53;;;3.47;;
37791;SDS011;29527;55.766;37.570;2022-12-07T00:15:51;5.50;;;2.97;;
37791;SDS011;29527;55.766;37.570;2022-12-07T00:18:16;8.10;;;3.30;;
37791;SDS011;29527;55.766;37.570;2022-12-07T00:20:42;8.38;;;3.63;;
37791;SDS011;29527;55.766;37.570;2022-12-07T00:23:07;7.78;;;3.78;;
37791;SDS011;29527;55.766;37.570;2022-12-07T00:25:33;6.43;;;3.38;;
37791;SDS011;29527;55.766;37.570;2022-12-07T00:27:58;8.77;;;3.85;;
37791;SDS011;29527;55.766;37.570;2022-12-07T00:30:23;8.70;;;3.08;;
37791;SDS011;29527;55.766;37.570;2022-12-07T00:32:49;8.40;;;3.58;;
37791;SDS011;29527;55.766;37.570;2022-12-07T00:35:15;6.13;;;3.35;;
37791;SDS011;29527;55.766;37.570;2022-12-07T00:37:40;9.13;;;3.88;;
37791;SDS011;29527;55.766;37.570;2022-12-07T00:40:06;8.20;;;3.65;;
37791;SDS011;29527;55.766;37.570;2022-12-07T00:42:32;6.63;;;3.70;;
37791;SDS011;29527;55.766;37.570;2022-12-07T00:44:57;7.60;;;3.17;;
37791;SDS011;29527;55.766;37.570;2022-12-07T00:47:23;8.20;;;3.55;;
37791;SDS011;29527;55.766;37.570;2022-12-07T00:49:48;6.63;;;3.65;;
37791;SDS011;29527;55.766;37.570;2022-12-07T00:52:14;9.02;;;3.25;;
37791;SDS011;29527;55.766;37.570;2022-12-07T00:54:39;9.00;;;3.70;;
37791;SDS011;29527;55.766;37.570;2022-12-07T00:57:05;7.75;;;3.72;;
37791;SDS011;29527;55.766;37.570;2022-12-07T00:59:31;9.60;;;3.50;;
37791;SDS011;29527;55.766;37.570;2022-12-07T01:01:57;10.27;;;3.67;;
37791;SDS011;29527;55.766;37.570;2022-12-07T01:04:22;8.13;;;3.00;;
37791;SDS011;29527;55.766;37.570;2022-12-07T01:06:47;8.30;;;3.65;;
37791;SDS011;29527;55.766;37.570;2022-12-07T01:09:13;7.88;;;3.00;;
37791;SDS011;29527;55.766;37.570;2022-12-07T01:11:38;9.43;;;3.50;;
37791;SDS011;29527;55.766;37.570;2022-12-07T01:14:04;6.30;;;3.13;;
37791;SDS011;29527;55.766;37.570;2022-12-07T01:16:30;4.85;;;2.92;;
37791;SDS011;29527;55.766;37.570;2022-12-07T01:18:57;7.25;;;3.42;;
37791;SDS011;29527;55.766;37.570;2022-12-07T01:21:24;8.82;;;3.13;;
37791;SDS011;29527;55.766;37.570;2022-12-07T01:23:56;5.85;;;3.10;;
37791;SDS011;29527;55.766;37.570;2022-12-07T01:26:23;8.02;;;3.85;;
37791;SDS011;29527;55.766;37.570;2022-12-07T01:28:50;9.80;;;3.33;;
37791;SDS011;29527;55.766;37.570;2022-12-07T01:31:17;6.93;;;2.40;;
37791;SDS011;29527;55.766;37.570;2022-12-07T01:33:46;7.80;;;3.65;;
37791;SDS011;29527;55.766;37.570;2022-12-07T01:38:40;7.10;;;3.30;;
37791;SDS011;29527;55.766;37.570;2022-12-07T01:41:05;8.07;;;3.25;;
37791;SDS011;29527;55.766;37.570;2022-12-07T01:43:32;7.07;;;3.30;;
37791;SDS011;29527;55.766;37.570;2022-12-07T01:45:59;13.80;;;3.65;;
37791;SDS011;29527;55.766;37.570;2022-12-07T01:48:35;6.82;;;3.55;;
37791;SDS011;29527;55.766;37.570;2022-12-07T01:51:05;5.97;;;2.22;;
37791;SDS011;29527;55.766;37.570;2022-12-07T01:53:38;10.95;;;3.13;;
37791;SDS011;29527;55.766;37.570;2022-12-07T01:56:08;7.75;;;3.30;;
37791;SDS011;29527;55.766;37.570;2022-12-07T01:58:37;7.70;;;4.07;;
37791;SDS011;29527;55.766;37.570;2022-12-07T02:01:03;8.85;;;4.05;;
37791;SDS011;29527;55.766;37.570;2022-12-07T02:03:39;8.18;;;2.35;;
37791;SDS011;29527;55.766;37.570;2022-12-07T02:06:06;10.35;;;3.38;;
37791;SDS011;29527;55.766;37.570;2022-12-07T02:08:32;6.55;;;3.67;;
37791;SDS011;29527;55.766;37.570;2022-12-07T02:10:59;7.93;;;3.28;;
37791;SDS011;29527;55.766;37.570;2022-12-07T02:13:27;9.75;;;4.05;;
37791;SDS011;29527;55.766;37.570;2022-12-07T02:15:59;9.25;;;4.07;;
37791;SDS011;29527;55.766;37.570;2022-12-07T02:24:15;6.88;;;3.47;;
37791;SDS011;29527;55.766;37.570;2022-12-07T02:32:59;6.10;;;3.42;;
37791;SDS011;29527;55.766;37.570;2022-12-07T02:35:32;8.20;;;3.70;;
37791;SDS011;29527;55.766;37.570;2022-12-07T02:40:48;8.77;;;3.58;;
37791;SDS011;29527;55.766;37.570;2022-12-07T02:43:28;8.10;;;3.53;;
37791;SDS011;29527;55.766;37.570;2022-12-07T02:46:07;7.63;;;3.42;;
37791;SDS011;29527;55.766;37.570;2022-12-07T02:51:20;6.38;;;3.50;;
37791;SDS011;29527;55.766;37.570;2022-12-07T02:53:47;7.72;;;3.60;;
37791;SDS011;29527;55.766;37.570;2022-12-07T03:15:46;6.95;;;3.53;;
37791;SDS011;29527;55.766;37.570;2022-12-07T03:18:20;6.85;;;3.45;;
37791;SDS011;29527;55.766;37.570;2022-12-07T03:20:49;9.20;;;3.95;;
37791;SDS011;29527;55.766;37.570;2022-12-07T03:23:19;7.88;;;3.25;;
37791;SDS011;29527;55.766;37.570;2022-12-07T03:25:48;8.38;;;3.80;;
37791;SDS011;29527;55.766;37.570;2022-12-07T03:28:17;9.02;;;3.97;;
37791;SDS011;29527;55.766;37.570;2022-12-07T03:33:29;8.48;;;3.58;;
37791;SDS011;29527;55.766;37.570;2022-12-07T03:38:53;9.18;;;4.22;;
37791;SDS011;29527;55.766;37.570;2022-12-07T03:41:28;9.10;;;3.42;;
37791;SDS011;29527;55.766;37.570;2022-12-07T03:43:58;12.15;;;3.72;;
37791;SDS011;29527;55.766;37.570;2022-12-07T03:46:39;8.80;;;3.70;;
37791;SDS011;29527;55.766;37.570;2022-12-07T03:51:56;6.75;;;3.03;;
37791;SDS011;29527;55.766;37.570;2022-12-07T03:54:41;10.00;;;3.40;;
37791;SDS011;29527;55.766;37.570;2022-12-07T03:57:12;9.43;;;3.35;;
37791;SDS011;29527;55.766;37.570;2022-12-07T03:59:39;13.52;;;4.00;;
37791;SDS011;29527;55.766;37.570;2022-12-07T04:02:06;8.82;;;3.88;;
37791;SDS011;29527;55.766;37.570;2022-12-07T04:04:32;6.45;;;3.25;;
37791;SDS011;29527;55.766;37.570;2022-12-07T04:06:59;9.20;;;3.80;;
37791;SDS011;29527;55.766;37.570;2022-12-07T04:09:24;7.60;;;3.38;;
37791;SDS011;29527;55.766;37.570;2022-12-07T04:11:50;7.97;;;3.63;;
37791;SDS011;29527;55.766;37.570;2022-12-07T04:14:16;7.72;;;3.95;;
37791;SDS011;29527;55.766;37.570;2022-12-07T04:16:45;8.50;;;3.90;;
37791;SDS011;29527;55.766;37.570;2022-12-07T04:19:14;10.65;;;3.83;;
37791;SDS011;29527;55.766;37.570;2022-12-07T04:21:41;12.18;;;4.03;;
37791;SDS011;29527;55.766;37.570;2022-12-07T04:24:06;9.40;;;4.03;;
37791;SDS011;29527;55.766;37.570;2022-12-07T04:26:32;7.70;;;3.80;;
37791;SDS011;29527;55.766;37.570;2022-12-07T04:28:58;10.15;;;3.05;;
37791;SDS011;29527;55.766;37.570;2022-12-07T04:31:23;9.85;;;4.20;;
37791;SDS011;29527;55.766;37.570;2022-12-07T04:33:49;8.38;;;4.22;;
37791;SDS011;29527;55.766;37.570;2022-12-07T04:36:14;7.22;;;3.45;;
37791;SDS011;29527;55.766;37.570;2022-12-07T04:38:40;11.05;;;3.85;;
37791;SDS011;29527;55.766;37.570;2022-12-07T04:41:06;8.15;;;4.22;;
37791;SDS011;29527;55.766;37.570;2022-12-07T04:43:32;8.75;;;3.60;;
37791;SDS011;29527;55.766;37.570;2022-12-07T04:45:58;7.68;;;3.75;;
37791;SDS011;29527;55.766;37.570;2022-12-07T04:48:23;7.47;;;3.70;;
37791;SDS011;29527;55.766;37.570;2022-12-07T04:50:49;10.43;;;4.18;;
37791;SDS011;29527;55.766;37.570;2022-12-07T04:53:15;11.85;;;3.90;;
37791;SDS011;29527;55.766;37.570;2022-12-07T04:55:41;8.00;;;3.88;;
37791;SDS011;29527;55.766;37.570;2022-12-07T04:58:06;7.22;;;3.85;;
37791;SDS011;29527;55.766;37.570;2022-12-07T05:00:32;8.98;;;3.83;;
37791;SDS011;29527;55.766;37.570;2022-12-07T05:02:57;14.75;;;4.13;;
37791;SDS011;29527;55.766;37.570;2022-12-07T05:05:23;11.63;;;3.67;;
37791;SDS011;29527;55.766;37.570;2022-12-07T05:07:49;7.35;;;3.78;;
37791;SDS011;29527;55.766;37.570;2022-12-07T05:10:15;9.27;;;3.47;;
37791;SDS011;29527;55.766;37.570;2022-12-07T05:12:40;8.05;;;3.97;;
37791;SDS011;29527;55.766;37.570;2022-12-07T05:15:06;7.18;;;3.72;;
37791;SDS011;29527;55.766;37.570;2022-12-07T05:17:31;9.50;;;3.88;;
37791;SDS011;29527;55.766;37.570;2022-12-07T05:19:57;6.75;;;3.50;;
37791;SDS011;29527;55.766;37.570;2022-12-07T05:22:22;6.65;;;3.55;;
37791;SDS011;29527;55.766;37.570;2022-12-07T05:24:48;9.52;;;3.85;;
37791;SDS011;29527;55.766;37.570;2022-12-07T05:27:13;10.98;;;4.40;;
37791;SDS011;29527;55.766;37.570;2022-12-07T05:29:39;10.15;;;4.50;;
37791;SDS011;29527;55.766;37.570;2022-12-07T05:32:04;10.52;;;3.80;;
37791;SDS011;29527;55.766;37.570;2022-12-07T05:34:30;10.90;;;4.00;;
37791;SDS011;29527;55.766;37.570;2022-12-07T05:36:55;11.77;;;4.35;;
37791;SDS011;29527;55.766;37.570;2022-12-07T05:39:20;13.70;;;4.50;;
37791;SDS011;29527;55.766;37.570;2022-12-07T05:41:46;8.65;;;4.32;;
37791;SDS011;29527;55.766;37.570;2022-12-07T05:44:30;12.57;;;4.50;;
37791;SDS011;29527;55.766;37.570;2022-12-07T05:46:55;11.25;;;4.50;;
37791;SDS011;29527;55.766;37.570;2022-12-07T05:49:21;12.63;;;4.53;;
37791;SDS011;29527;55.766;37.570;2022-12-07T05:51:46;10.35;;;4.65;;
37791;SDS011;29527;55.766;37.570;2022-12-07T05:54:12;9.77;;;4.63;;
37791;SDS011;29527;55.766;37.570;2022-12-07T05:56:38;13.25;;;5.50;;
37791;SDS011;29527;55.766;37.570;2022-12-07T05:59:04;12.38;;;5.53;;
37791;SDS011;29527;55.766;37.570;2022-12-07T06:01:55;11.05;;;5.50;;
37791;SDS011;29527;55.766;37.570;2022-12-07T06:06:49;9.23;;;4.80;;
37791;SDS011;29527;55.766;37.570;2022-12-07T06:09:15;13.05;;;5.15;;
37791;SDS011;29527;55.766;37.570;2022-12-07T06:11:43;13.88;;;5.57;;
37791;SDS011;29527;55.766;37.570;2022-12-07T06:14:27;10.13;;;4.75;;
37791;SDS011;29527;55.766;37.570;2022-12-07T06:16:53;11.20;;;5.25;;
37791;SDS011;29527;55.766;37.570;2022-12-07T06:19:18;15.95;;;5.72;;
37791;SDS011;29527;55.766;37.570;2022-12-07T06:21:44;13.10;;;5.93;;
37791;SDS011;29527;55.766;37.570;2022-12-07T06:24:10;14.20;;;5.85;;
37791;SDS011;29527;55.766;37.570;2022-12-07T06:26:37;12.32;;;6.35;;
37791;SDS011;29527;55.766;37.570;2022-12-07T06:29:03;12.07;;;5.57;;
37791;SDS011;29527;55.766;37.570;2022-12-07T06:31:28;14.23;;;6.00;;
37791;SDS011;29527;55.766;37.570;2022-12-07T06:34:04;14.73;;;6.72;;
37791;SDS011;29527;55.766;37.570;2022-12-07T06:36:31;16.30;;;7.15;;
37791;SDS011;29527;55.766;37.570;2022-12-07T06:38:57;17.50;;;6.75;;
37791;SDS011;29527;55.766;37.570;2022-12-07T06:41:22;16.25;;;7.13;;
37791;SDS011;29527;55.766;37.570;2022-12-07T06:43:48;15.18;;;6.30;;
37791;SDS011;29527;55.766;37.570;2022-12-07T06:46:14;18.50;;;6.75;;
37791;SDS011;29527;55.766;37.570;2022-12-07T06:48:40;18.88;;;7.78;;
37791;SDS011;29527;55.766;37.570;2022-12-07T06:51:07;9.95;;;5.20;;
37791;SDS011;29527;55.766;37.570;2022-12-07T06:53:33;15.95;;;7.35;;
37791;SDS011;29527;55.766;37.570;2022-12-07T06:55:58;14.68;;;7.43;;
37791;SDS011;29527;55.766;37.570;2022-12-07T06:58:24;15.60;;;7.95;;
37791;SDS011;29527;55.766;37.570;2022-12-07T07:00:49;18.38;;;8.52;;
37791;SDS011;29527;55.766;37.570;2022-12-07T07:03:15;22.67;;;7.90;;
37791;SDS011;29527;55.766;37.570;2022-12-07T07:05:42;19.02;;;7.45;;
37791;SDS011;29527;55.766;37.570;2022-12-07T07:08:08;17.63;;;7.95;;
37791;SDS011;29527;55.766;37.570;2022-12-07T07:10:34;18.50;;;7.15;;
37791;SDS011;29527;55.766;37.570;2022-12-07T07:13:00;17.05;;;7.85;;
37791;SDS011;29527;55.766;37.570;2022-12-07T07:15:25;16.58;;;7.28;;
37791;SDS011;29527;55.766;37.570;2022-12-07T07:17:51;13.45;;;6.95;;
37791;SDS011;29527;55.766;37.570;2022-12-07T07:20:16;10.48;;;6.43;;
37791;SDS011;29527;55.766;37.570;2022-12-07T07:22:42;13.30;;;7.47;;
37791;SDS011;29527;55.766;37.570;2022-12-07T07:25:07;11.38;;;6.93;;
37791;SDS011;29527;55.766;37.570;2022-12-07T07:27:33;17.35;;;7.40;;
37791;SDS011;29527;55.766;37.570;2022-12-07T07:29:58;11.65;;;6.07;;
37791;SDS011;29527;55.766;37.570;2022-12-07T07:32:24;15.10;;;6.55;;
37791;SDS011;29527;55.766;37.570;2022-12-07T07:34:49;14.32;;;7.20;;
37791;SDS011;29527;55.766;37.570;2022-12-07T07:37:14;15.57;;;7.50;;
37791;SDS011;29527;55.766;37.570;2022-12-07T07:39:40;13.00;;;7.10;;
37791;SDS011;29527;55.766;37.570;2022-12-07T07:42:05;19.88;;;7.50;;
37791;SDS011;29527;55.766;37.570;2022-12-07T07:44:32;12.02;;;6.32;;
37791;SDS011;29527;55.766;37.570;2022-12-07T07:46:59;13.77;;;7.20;;
37791;SDS011;29527;55.766;37.570;2022-12-07T07:49:25;14.45;;;7.13;;
37791;SDS011;29527;55.766;37.570;2022-12-07T07:51:51;13.90;;;6.60;;
37791;SDS011;29527;55.766;37.570;2022-12-07T07:54:16;16.35;;;6.45;;
37791;SDS011;29527;55.766;37.570;2022-12-07T07:56:42;13.23;;;7.07;;
37791;SDS011;29527;55.766;37.570;2022-12-07T07:59:07;14.27;;;6.45;;
37791;SDS011;29527;55.766;37.570;2022-12-07T08:01:33;15.27;;;6.50;;
37791;SDS011;29527;55.766;37.570;2022-12-07T08:03:59;16.40;;;7.10;;
37791;SDS011;29527;55.766;37.570;2022-12-07T08:06:24;16.98;;;7.20;;
37791;SDS011;29527;55.766;37.570;2022-12-07T08:08:50;16.30;;;6.68;;
37791;SDS011;29527;55.766;37.570;2022-12-07T08:11:15;11.75;;;5.22;;
37791;SDS011;29527;55.766;37.570;2022-12-07T08:13:41;14.95;;;6.55;;
37791;SDS011;29527;55.766;37.570;2022-12-07T08:16:08;20.55;;;8.32;;
37791;SDS011;29527;55.766;37.570;2022-12-07T08:18:35;15.77;;;6.35;;
37791;SDS011;29527;55.766;37.570;2022-12-07T08:21:01;16.40;;;7.35;;
37791;SDS011;29527;55.766;37.570;2022-12-07T08:23:28;12.85;;;6.85;;
37791;SDS011;29527;55.766;37.570;2022-12-07T08:25:54;20.75;;;6.68;;
37791;SDS011;29527;55.766;37.570;2022-12-07T08:28:19;15.05;;;7.05;;
37791;SDS011;29527;55.766;37.570;2022-12-07T08:30:45;15.13;;;6.63;;
37791;SDS011;29527;55.766;37.570;2022-12-07T08:33:10;15.63;;;6.20;;
37791;SDS011;29527;55.766;37.570;2022-12-07T08:35:36;21.52;;;9.02;;
37791;SDS011;29527;55.766;37.570;2022-12-07T08:38:01;16.88;;;6.72;;
37791;SDS011;29527;55.766;37.570;2022-12-07T08:40:28;14.88;;;7.10;;
37791;SDS011;29527;55.766;37.570;2022-12-07T08:42:54;14.20;;;6.70;;
37791;SDS011;29527;55.766;37.570;2022-12-07T08:45:21;17.75;;;6.90;;
37791;SDS011;29527;55.766;37.570;2022-12-07T08:50:15;15.25;;;7.30;;
37791;SDS011;29527;55.766;37.570;2022-12-07T08:52:41;15.50;;;6.88;;
37791;SDS011;29527;55.766;37.570;2022-12-07T08:55:09;17.88;;;6.80;;
37791;SDS011;29527;55.766;37.570;2022-12-07T08:57:36;13.30;;;5.53;;
37791;SDS011;29527;55.766;37.570;2022-12-07T09:00:03;15.25;;;7.20;;
37791;SDS011;29527;55.766;37.570;2022-12-07T09:02:31;17.70;;;6.55;;
37791;SDS011;29527;55.766;37.570;2022-12-07T09:04:56;18.35;;;6.78;;
37791;SDS011;29527;55.766;37.570;2022-12-07T09:07:22;12.73;;;6.60;;
37791;SDS011;29527;55.766;37.570;2022-12-07T09:09:48;16.85;;;6.95;;
37791;SDS011;29527;55.766;37.570;2022-12-07T09:12:13;15.70;;;6.55;;
37791;SDS011;29527;55.766;37.570;2022-12-07T09:14:39;15.55;;;6.78;;
37791;SDS011;29527;55.766;37.570;2022-12-07T09:17:08;15.13;;;6.13;;
37791;SDS011;29527;55.766;37.570;2022-12-07T09:19:35;16.90;;;6.70;;
37791;SDS011;29527;55.766;37.570;2022-12-07T09:22:00;13.30;;;5.70;;
37791;SDS011;29527;55.766;37.570;2022-12-07T09:24:26;16.10;;;7.00;;
37791;SDS011;29527;55.766;37.570;2022-12-07T09:26:51;8.23;;;3.22;;
37791;SDS011;29527;55.766;37.570;2022-12-07T09:29:17;19.05;;;7.55;;
37791;SDS011;29527;55.766;37.570;2022-12-07T09:31:42;12.77;;;5.65;;
37791;SDS011;29527;55.766;37.570;2022-12-07T09:34:08;16.42;;;6.63;;
37791;SDS011;29527;55.766;37.570;2022-12-07T09:36:33;19.20;;;7.13;;
37791;SDS011;29527;55.766;37.570;2022-12-07T09:38:59;18.08;;;6.22;;
37791;SDS011;29527;55.766;37.570;2022-12-07T09:41:25;15.18;;;7.10;;
37791;SDS011;29527;55.766;37.570;2022-12-07T09:43:53;12.85;;;6.30;;
37791;SDS011;29527;55.766;37.570;2022-12-07T09:46:27;13.02;;;6.10;;
37791;SDS011;29527;55.766;37.570;2022-12-07T09:48:56;15.07;;;6.60;;
37791;SDS011;29527;55.766;37.570;2022-12-07T09:51:22;14.93;;;6.32;;
37791;SDS011;29527;55.766;37.570;2022-12-07T09:53:49;14.75;;;5.88;;
37791;SDS011;29527;55.766;37.570;2022-12-07T09:56:17;18.73;;;6.97;;
37791;SDS011;29527;55.766;37.570;2022-12-07T09:58:44;14.90;;;6.32;;
37791;SDS011;29527;55.766;37.570;2022-12-07T10:03:40;14.10;;;6.60;;
37791;SDS011;29527;55.766;37.570;2022-12-07T10:06:10;11.63;;;5.47;;
37791;SDS011;29527;55.766;37.570;2022-12-07T10:08:38;9.18;;;4.05;;
37791;SDS011;29527;55.766;37.570;2022-12-07T10:11:03;10.75;;;5.20;;
37791;SDS011;29527;55.766;37.570;2022-12-07T10:13:36;19.25;;;6.78;;
37791;SDS011;29527;55.766;37.570;2022-12-07T10:21:59;14.10;;;6.40;;
37791;SDS011;29527;55.766;37.570;2022-12-07T10:24:27;13.18;;;5.90;;
37791;SDS011;29527;55.766;37.570;2022-12-07T10:26:52;14.18;;;6.45;;
37791;SDS011;29527;55.766;37.570;2022-12-07T10:29:23;12.40;;;4.95;;
37791;SDS011;29527;55.766;37.570;2022-12-07T10:32:05;13.30;;;6.00;;
37791;SDS011;29527;55.766;37.570;2022-12-07T10:34:40;10.70;;;4.97;;
37791;SDS011;29527;55.766;37.570;2022-12-07T10:37:27;15.18;;;6.07;;
37791;SDS011;29527;55.766;37.570;2022-12-07T10:39:53;10.90;;;5.28;;
37791;SDS011;29527;55.766;37.570;2022-12-07T10:42:24;13.32;;;5.85;;
37791;SDS011;29527;55.766;37.570;2022-12-07T11:12:26;11.07;;;4.85;;
37791;SDS011;29527;55.766;37.570;2022-12-07T11:15:11;16.80;;;6.63;;
37791;SDS011;29527;55.766;37.570;2022-12-07T11:17:48;14.02;;;6.43;;
37791;SDS011;29527;55.766;37.570;2022-12-07T11:34:08;18.30;;;6.45;;
37791;SDS011;29527;55.766;37.570;2022-12-07T11:36:41;15.80;;;6.47;;
37791;SDS011;29527;55.766;37.570;2022-12-07T11:41:55;15.02;;;5.95;;
37791;SDS011;29527;55.766;37.570;2022-12-07T11:44:29;19.05;;;6.68;;
37791;SDS011;29527;55.766;37.570;2022-12-07T11:47:07;19.23;;;7.28;;
37791;SDS011;29527;55.766;37.570;2022-12-07T11:52:04;16.70;;;6.80;;
37791;SDS011;29527;55.766;37.570;2022-12-07T11:54:36;13.73;;;5.80;;
37791;SDS011;29527;55.766;37.570;2022-12-07T11:57:09;16.02;;;6.95;;
37791;SDS011;29527;55.766;37.570;2022-12-07T11:59:51;15.15;;;6.80;;
37791;SDS011;29527;55.766;37.570;2022-12-07T12:02:31;10.82;;;5.57;;
37791;SDS011;29527;55.766;37.570;2022-12-07T12:05:05;22.08;;;7.53;;
37791;SDS011;29527;55.766;37.570;2022-12-07T12:07:35;15.05;;;7.13;;
37791;SDS011;29527;55.766;37.570;2022-12-07T12:10:04;13.75;;;6.70;;
37791;SDS011;29527;55.766;37.570;2022-12-07T12:15:19;16.90;;;7.03;;
37791;SDS011;29527;55.766;37.570;2022-12-07T12:20:54;13.40;;;6.65;;
37791;SDS011;29527;55.766;37.570;2022-12-07T12:23:24;14.57;;;6.72;;
37791;SDS011;29527;55.766;37.570;2022-12-07T12:26:01;17.02;;;7.00;;
37791;SDS011;29527;55.766;37.570;2022-12-07T12:28:39;15.93;;;7.72;;
37791;SDS011;29527;55.766;37.570;2022-12-07T12:33:47;13.48;;;7.00;;
37791;SDS011;29527;55.766;37.570;2022-12-07T12:54:35;18.05;;;7.63;;
37791;SDS011;29527;55.766;37.570;2022-12-07T12:57:05;14.88;;;6.82;;
37791;SDS011;29527;55.766;37.570;2022-12-07T13:20:54;15.80;;;6.90;;
37791;SDS011;29527;55.766;37.570;2022-12-07T13:23:29;18.05;;;7.20;;
37791;SDS011;29527;55.766;37.570;2022-12-07T13:37:02;18.27;;;7.80;;
37791;SDS011;29527;55.766;37.570;2022-12-07T13:39:35;16.95;;;7.25;;
37791;SDS011;29527;55.766;37.570;2022-12-07T13:42:19;22.10;;;7.50;;
37791;SDS011;29527;55.766;37.570;2022-12-07T13:44:51;14.05;;;3.70;;
37791;SDS011;29527;55.766;37.570;2022-12-07T13:47:18;13.50;;;5.97;;
37791;SDS011;29527;55.766;37.570;2022-12-07T13:49:59;23.80;;;7.93;;
37791;SDS011;29527;55.766;37.570;2022-12-07T13:52:26;15.55;;;7.00;;
37791;SDS011;29527;55.766;37.570;2022-12-07T13:55:00;19.00;;;8.13;;
37791;SDS011;29527;55.766;37.570;2022-12-07T13:57:29;14.73;;;7.40;;
37791;SDS011;29527;55.766;37.570;2022-12-07T13:59:56;21.17;;;7.93;;
37791;SDS011;29527;55.766;37.570;2022-12-07T14:02:27;18.80;;;7.68;;
37791;SDS011;29527;55.766;37.570;2022-12-07T14:05:43;17.02;;;7.53;;
37791;SDS011;29527;55.766;37.570;2022-12-07T14:07:55;17.45;;;8.70;;
37791;SDS011;29527;55.766;37.570;2022-12-07T14:12:49;17.67;;;7.10;;
37791;SDS011;29527;55.766;37.570;2022-12-07T14:15:22;21.58;;;8.88;;
37791;SDS011;29527;55.766;37.570;2022-12-07T14:17:51;19.92;;;7.70;;
37791;SDS011;29527;55.766;37.570;2022-12-07T14:20:37;17.33;;;7.10;;
37791;SDS011;29527;55.766;37.570;2022-12-07T14:23:05;18.20;;;7.82;;
37791;SDS011;29527;55.766;37.570;2022-12-07T14:25:46;19.33;;;7.55;;
37791;SDS011;29527;55.766;37.570;2022-12-07T14:28:26;8.95;;;4.05;;
37791;SDS011;29527;55.766;37.570;2022-12-07T14:30:53;16.95;;;8.25;;
37791;SDS011;29527;55.766;37.570;2022-12-07T14:33:19;15.48;;;7.97;;
37791;SDS011;29527;55.766;37.570;2022-12-07T14:35:46;17.45;;;8.60;;
37791;SDS011;29527;55.766;37.570;2022-12-07T14:38:11;21.58;;;8.40;;
37791;SDS011;29527;55.766;37.570;2022-12-07T14:40:36;17.30;;;7.80;;
37791;SDS011;29527;55.766;37.570;2022-12-07T14:43:11;18.48;;;8.05;;
37791;SDS011;29527;55.766;37.570;2022-12-07T14:45:40;15.43;;;7.00;;
37791;SDS011;29527;55.766;37.570;2022-12-07T14:48:14;17.35;;;7.70;;
37791;SDS011;29527;55.766;37.570;2022-12-07T14:50:41;15.38;;;7.55;;
37791;SDS011;29527;55.766;37.570;2022-12-07T14:53:15;18.27;;;6.95;;
37791;SDS011;29527;55.766;37.570;2022-12-07T14:55:43;16.20;;;7.15;;
37791;SDS011;29527;55.766;37.570;2022-12-07T14:58:12;17.75;;;8.02;;
37791;SDS011;29527;55.766;37.570;2022-12-07T15:00:39;17.23;;;7.35;;
37791;SDS011;29527;55.766;37.570;2022-12-07T15:03:05;18.42;;;7.53;;
37791;SDS011;29527;55.766;37.570;2022-12-07T15:05:30;19.92;;;7.47;;
37791;SDS011;29527;55.766;37.570;2022-12-07T15:07:55;20.08;;;8.15;;
37791;SDS011;29527;55.766;37.570;2022-12-07T15:10:25;16.50;;;8.13;;
37791;SDS011;29527;55.766;37.570;2022-12-07T15:13:01;18.00;;;7.72;;
37791;SDS011;29527;55.766;37.570;2022-12-07T15:15:47;16.63;;;7.07;;
37791;SDS011;29527;55.766;37.570;2022-12-07T15:18:13;16.85;;;7.60;;
37791;SDS011;29527;55.766;37.570;2022-12-07T15:20:39;21.70;;;8.05;;
37791;SDS011;29527;55.766;37.570;2022-12-07T15:23:05;17.00;;;7.75;;
37791;SDS011;29527;55.766;37.570;2022-12-07T15:25:31;16.27;;;7.57;;
37791;SDS011;29527;55.766;37.570;2022-12-07T15:27:56;22.23;;;8.45;;
37791;SDS011;29527;55.766;37.570;2022-12-07T15:30:22;17.38;;;7.68;;
37791;SDS011;29527;55.766;37.570;2022-12-07T15:32:50;18.58;;;8.30;;
37791;SDS011;29527;55.766;37.570;2022-12-07T15:35:17;16.55;;;7.57;;
37791;SDS011;29527;55.766;37.570;2022-12-07T15:37:42;15.48;;;7.45;;
37791;SDS011;29527;55.766;37.570;2022-12-07T15:40:08;19.30;;;7.88;;
37791;SDS011;29527;55.766;37.570;2022-12-07T15:42:35;19.27;;;6.63;;
37791;SDS011;29527;55.766;37.570;2022-12-07T15:45:01;20.05;;;9.43;;
37791;SDS011;29527;55.766;37.570;2022-12-07T15:47:34;22.98;;;8.07;;
37791;SDS011;29527;55.766;37.570;2022-12-07T15:50:06;19.52;;;8.13;;
37791;SDS011;29527;55.766;37.570;2022-12-07T15:52:33;18.73;;;8.30;;
37791;SDS011;29527;55.766;37.570;2022-12-07T15:54:58;20.20;;;8.95;;
37791;SDS011;29527;55.766;37.570;2022-12-07T15:57:29;16.75;;;7.53;;
37791;SDS011;29527;55.766;37.570;2022-12-07T15:59:56;19.65;;;8.15;;
37791;SDS011;29527;55.766;37.570;2022-12-07T16:02:21;14.27;;;7.10;;
37791;SDS011;29527;55.766;37.570;2022-12-07T16:04:48;19.17;;;7.53;;
37791;SDS011;29527;55.766;37.570;2022-12-07T16:07:15;15.90;;;7.13;;
37791;SDS011;29527;55.766;37.570;2022-12-07T16:09:41;16.63;;;7.57;;
37791;SDS011;29527;55.766;37.570;2022-12-07T16:12:07;18.25;;;7.80;;
37791;SDS011;29527;55.766;37.570;2022-12-07T16:14:33;7.75;;;3.42;;
37791;SDS011;29527;55.766;37.570;2022-12-07T16:16:59;18.20;;;8.18;;
37791;SDS011;29527;55.766;37.570;2022-12-07T16:19:24;19.83;;;8.38;;
37791;SDS011;29527;55.766;37.570;2022-12-07T16:21:50;19.08;;;8.43;;
37791;SDS011;29527;55.766;37.570;2022-12-07T16:24:16;17.10;;;8.38;;
37791;SDS011;29527;55.766;37.570;2022-12-07T16:26:42;16.48;;;7.85;;
37791;SDS011;29527;55.766;37.570;2022-12-07T16:29:10;18.30;;;7.43;;
37791;SDS011;29527;55.766;37.570;2022-12-07T16:31:36;18.92;;;7.80;;
37791;SDS011;29527;55.766;37.570;2022-12-07T16:34:02;18.13;;;7.28;;
37791;SDS011;29527;55.766;37.570;2022-12-07T16:36:27;14.82;;;7.28;;
37791;SDS011;29527;55.766;37.570;2022-12-07T16:38:53;16.95;;;6.30;;
37791;SDS011;29527;55.766;37.570;2022-12-07T16:41:19;23.60;;;7.43;;
37791;SDS011;29527;55.766;37.570;2022-12-07T16:43:45;16.20;;;7.75;;
37791;SDS011;29527;55.766;37.570;2022-12-07T16:46:11;19.63;;;9.02;;
37791;SDS011;29527;55.766;37.570;2022-12-07T16:48:38;15.75;;;7.38;;
37791;SDS011;29527;55.766;37.570;2022-12-07T16:51:05;21.55;;;8.10;;
37791;SDS011;29527;55.766;37.570;2022-12-07T16:53:33;12.32;;;4.65;;
37791;SDS011;29527;55.766;37.570;2022-12-07T16:55:59;16.63;;;7.70;;
37791;SDS011;29527;55.766;37.570;2022-12-07T16:58:24;14.77;;;6.47;;
37791;SDS011;29527;55.766;37.570;2022-12-07T17:00:50;17.85;;;8.27;;
37791;SDS011;29527;55.766;37.570;2022-12-07T17:03:15;17.73;;;7.10;;
37791;SDS011;29527;55.766;37.570;2022-12-07T17:05:42;19.70;;;8.10;;
37791;SDS011;29527;55.766;37.570;2022-12-07T17:08:10;16.40;;;6.82;;
37791;SDS011;29527;55.766;37.570;2022-12-07T17:10:37;20.10;;;8.70;;
37791;SDS011;29527;55.766;37.570;2022-12-07T17:13:05;13.20;;;6.10;;
37791;SDS011;29527;55.766;37.570;2022-12-07T17:16:04;18.63;;;7.53;;
37791;SDS011;29527;55.766;37.570;2022-12-07T17:18:32;13.65;;;7.20;;
37791;SDS011;29527;55.766;37.570;2022-12-07T17:21:06;18.15;;;7.13;;